createdAt,value
2018-11-05T00:02:23.873Z,951.05
2018-11-05T00:04:54.316Z,943.62
2018-11-05T00:07:23.838Z,954.40
2018-11-05T00:09:54.034Z,941.13
2018-11-05T00:12:23.535Z,939.90
2018-11-05T00:14:53.794Z,939.93
2018-11-05T00:17:23.327Z,928.80
2018-11-05T00:19:52.764Z,932.10
2018-11-05T00:22:22.338Z,944.05
2018-11-05T00:24:51.783Z,932.47
2018-11-05T00:27:21.206Z,935.60
2018-11-05T00:29:50.768Z,931.30
2018-11-05T00:32:20.253Z,932.17
2018-11-05T00:34:49.691Z,929.42
2018-11-05T00:37:19.180Z,927.52
2018-11-05T00:39:48.657Z,930.55
2018-11-05T00:42:18.207Z,933.33
2018-11-05T00:44:51.488Z,953.20
2018-11-05T00:47:20.894Z,952.17
2018-11-05T00:49:50.429Z,928.82
2018-11-05T00:52:20.550Z,936.10
2018-11-05T00:54:50.103Z,938.98
2018-11-05T00:57:19.709Z,938.30
2018-11-05T00:59:49.190Z,937.83
2018-11-05T01:02:18.732Z,932.77
2018-11-05T01:04:48.128Z,935.25
2018-11-05T01:07:17.566Z,934.87
2018-11-05T01:09:47.082Z,937.35
2018-11-05T01:12:16.581Z,941.35
2018-11-05T01:14:46.023Z,937.27
2018-11-05T01:17:15.494Z,944.35
2018-11-05T01:19:45.028Z,931.20
2018-11-05T01:22:14.507Z,929.12
2018-11-05T01:24:45.145Z,930.00
2018-11-05T01:27:14.618Z,928.52
2018-11-05T01:29:44.133Z,942.10
2018-11-05T01:32:13.644Z,930.55
2018-11-05T01:34:43.021Z,929.60
2018-11-05T01:37:12.552Z,921.72
2018-11-05T01:39:41.973Z,927.97
2018-11-05T01:42:12.369Z,919.95
2018-11-05T01:44:41.879Z,917.58
2018-11-05T01:47:11.581Z,948.23
2018-11-05T01:49:40.978Z,933.35
2018-11-05T01:52:10.390Z,920.73
2018-11-05T01:54:40.428Z,920.12
2018-11-05T01:57:09.851Z,920.65
2018-11-05T01:59:39.340Z,909.17
2018-11-05T02:02:08.939Z,917.00
2018-11-05T02:04:39.455Z,910.70
2018-11-05T02:07:08.971Z,905.83
2018-11-05T02:09:38.493Z,897.33
2018-11-05T02:12:11.962Z,897.85
2018-11-05T02:14:41.520Z,902.22
2018-11-05T02:17:11.072Z,901.95
2018-11-05T02:19:42.624Z,894.73
2018-11-05T02:22:12.441Z,899.65
2018-11-05T02:24:42.953Z,900.30
2018-11-05T02:27:13.104Z,891.80
2018-11-05T02:29:42.636Z,895.73
2018-11-05T02:32:12.210Z,888.03
2018-11-05T02:34:41.600Z,889.38
2018-11-05T02:37:11.044Z,888.80
2018-11-05T02:39:40.547Z,885.52
2018-11-05T02:42:10.135Z,887.33
2018-11-05T02:44:41.635Z,891.27
2018-11-05T02:47:11.114Z,891.50
2018-11-05T02:49:40.641Z,892.30
2018-11-05T02:52:10.036Z,896.87
2018-11-05T02:54:39.532Z,887.12
2018-11-05T02:57:08.964Z,882.58
2018-11-05T02:59:38.390Z,887.37
2018-11-05T03:02:07.810Z,889.75
2018-11-05T03:04:38.059Z,859.50
2018-11-05T03:07:07.557Z,858.92
2018-11-05T03:09:37.097Z,852.92
2018-11-05T03:12:06.954Z,858.42
2018-11-05T03:14:36.462Z,847.23
2018-11-05T03:17:06.282Z,842.53
2018-11-05T03:19:36.347Z,836.67
2018-11-05T03:22:06.173Z,840.70
2018-11-05T03:24:35.696Z,841.32
2018-11-05T03:27:05.623Z,836.17
2018-11-05T03:29:35.152Z,847.33
2018-11-05T03:32:04.624Z,845.17
2018-11-05T03:34:34.145Z,850.40
2018-11-05T03:37:03.783Z,851.95
2018-11-05T03:39:33.338Z,844.40
2018-11-05T03:42:03.866Z,840.47
2018-11-05T03:44:33.326Z,842.33
2018-11-05T03:47:02.795Z,844.60
2018-11-05T03:49:33.232Z,839.67
2018-11-05T03:52:03.753Z,838.38
2018-11-05T03:54:33.256Z,847.48
2018-11-05T03:57:02.733Z,850.60
2018-11-05T03:59:33.113Z,844.40
2018-11-05T04:02:02.865Z,853.25
2018-11-05T04:04:32.424Z,841.77
2018-11-05T04:07:01.892Z,851.95
2018-11-05T04:09:31.510Z,852.77
2018-11-05T04:12:00.929Z,852.35
2018-11-05T04:14:30.440Z,868.88
2018-11-05T04:18:22.657Z,877.97
2018-11-05T04:20:52.238Z,853.88
2018-11-05T04:23:21.700Z,858.60
2018-11-05T04:25:51.252Z,862.63
2018-11-05T04:28:20.995Z,859.35
2018-11-05T04:30:50.578Z,860.90
2018-11-05T04:33:21.031Z,859.90
2018-11-05T04:35:50.581Z,855.63
2018-11-05T04:38:20.042Z,860.20
2018-11-05T04:40:51.204Z,861.95
2018-11-05T04:43:23.818Z,869.90
2018-11-05T04:45:54.218Z,851.07
2018-11-05T04:48:23.610Z,851.85
2018-11-05T04:50:53.045Z,846.78
2018-11-05T04:53:22.543Z,846.08
2018-11-05T04:55:52.065Z,861.45
2018-11-05T04:58:21.418Z,862.15
2018-11-05T05:00:51.944Z,867.05
2018-11-05T05:03:21.507Z,863.25
2018-11-05T05:05:50.982Z,869.77
2018-11-05T05:08:20.792Z,869.13
2018-11-05T05:10:54.241Z,864.30
2018-11-05T05:13:23.682Z,866.50
2018-11-05T05:15:53.128Z,858.30
2018-11-05T05:18:22.645Z,855.78
2018-11-05T05:20:52.159Z,862.18
2018-11-05T05:23:21.641Z,865.55
2018-11-05T05:25:51.183Z,864.43
2018-11-05T05:28:20.761Z,854.48
2018-11-05T05:30:50.152Z,864.98
2018-11-05T05:33:19.606Z,846.90
2018-11-05T05:35:49.069Z,852.50
2018-11-05T05:38:19.611Z,857.62
2018-11-05T05:40:49.105Z,861.30
2018-11-05T05:43:18.567Z,852.55
2018-11-05T05:45:48.012Z,851.90
2018-11-05T05:48:18.527Z,853.37
2018-11-05T05:50:48.078Z,857.40
2018-11-05T05:53:17.530Z,854.45
2018-11-05T05:55:47.094Z,861.08
2018-11-05T05:58:17.619Z,864.55
2018-11-05T06:00:47.221Z,865.90
2018-11-05T06:03:16.876Z,868.10
2018-11-05T06:05:47.407Z,864.23
2018-11-05T06:08:16.890Z,867.75
2018-11-05T06:10:46.398Z,871.80
2018-11-05T06:13:16.932Z,867.13
2018-11-05T06:15:46.474Z,870.25
2018-11-05T06:18:15.988Z,863.75
2018-11-05T06:20:45.483Z,866.17
2018-11-05T06:23:14.964Z,876.13
2018-11-05T06:25:44.390Z,870.33
2018-11-05T06:28:13.853Z,858.87
2018-11-05T06:30:43.497Z,876.00
2018-11-05T06:33:13.967Z,857.67
2018-11-05T06:35:44.179Z,859.07
2018-11-05T06:38:16.683Z,856.85
2018-11-05T06:40:46.206Z,866.35
2018-11-05T06:43:15.677Z,864.00
2018-11-05T06:45:45.240Z,864.90
2018-11-05T06:48:15.745Z,862.83
2018-11-05T06:50:45.290Z,864.27
2018-11-05T06:53:14.884Z,864.87
2018-11-05T06:55:44.399Z,867.90
2018-11-05T06:58:13.953Z,866.77
2018-11-05T07:00:44.426Z,875.95
2018-11-05T07:03:13.861Z,877.50
2018-11-05T07:05:43.420Z,874.38
2018-11-05T07:08:12.830Z,887.75
2018-11-05T07:10:42.437Z,889.42
2018-11-05T07:13:11.905Z,892.27
2018-11-05T07:15:41.453Z,884.83
2018-11-05T07:18:11.039Z,889.23
2018-11-05T07:20:40.495Z,877.85
2018-11-05T07:23:09.985Z,875.85
2018-11-05T07:25:39.396Z,893.52
2018-11-05T07:28:09.498Z,886.77
2018-11-05T07:30:38.893Z,888.08
2018-11-05T07:33:08.356Z,899.50
2018-11-05T07:35:37.829Z,905.05
2018-11-05T07:38:07.379Z,887.52
2018-11-05T07:40:36.861Z,889.27
2018-11-05T07:43:06.336Z,880.60
2018-11-05T07:45:35.796Z,869.50
2018-11-05T07:48:06.528Z,882.35
2018-11-05T07:50:35.979Z,885.03
2018-11-05T07:53:05.970Z,879.57
2018-11-05T07:55:36.376Z,886.90
2018-11-05T07:58:06.699Z,878.08
2018-11-05T08:00:41.634Z,895.40
2018-11-05T08:03:11.111Z,882.55
2018-11-05T08:05:40.657Z,878.40
2018-11-05T08:08:10.266Z,872.67
2018-11-05T08:10:40.686Z,879.63
2018-11-05T08:13:10.141Z,880.72
2018-11-05T08:15:40.716Z,881.55
2018-11-05T08:18:11.186Z,883.55
2018-11-05T08:20:42.719Z,893.25
2018-11-05T08:23:12.266Z,890.53
2018-11-05T08:25:41.819Z,903.25
2018-11-05T08:28:11.328Z,893.93
2018-11-05T08:30:40.928Z,895.63
2018-11-05T08:33:10.552Z,902.15
2018-11-05T08:35:40.087Z,907.65
2018-11-05T08:38:09.557Z,897.25
2018-11-05T08:40:39.155Z,885.13
2018-11-05T08:43:09.639Z,885.30
2018-11-05T08:45:39.175Z,893.55
2018-11-05T08:48:08.610Z,901.05
2018-11-05T08:50:38.039Z,913.50
2018-11-05T08:53:07.494Z,900.13
2018-11-05T08:55:37.035Z,908.77
2018-11-05T08:58:07.245Z,878.03
2018-11-05T09:00:42.661Z,894.73
2018-11-05T09:03:12.181Z,899.80
2018-11-05T09:05:41.749Z,883.80
2018-11-05T09:08:11.146Z,870.70
2018-11-05T09:10:40.898Z,849.95
2018-11-05T09:13:10.133Z,843.67
2018-11-05T09:15:39.619Z,840.80
2018-11-05T09:18:09.249Z,845.33
2018-11-05T09:20:39.743Z,839.27
2018-11-05T09:23:09.264Z,848.47
2018-11-05T09:25:38.782Z,830.72
2018-11-05T09:28:08.275Z,833.53
2018-11-05T09:30:37.776Z,846.80
2018-11-05T09:33:07.203Z,855.75
2018-11-05T09:35:36.679Z,838.72
2018-11-05T09:38:06.290Z,843.37
2018-11-05T09:40:35.793Z,848.37
2018-11-05T09:43:05.939Z,860.67
2018-11-05T09:45:35.492Z,848.87
2018-11-05T09:48:05.089Z,835.37
2018-11-05T09:50:34.629Z,831.87
2018-11-05T09:53:04.036Z,827.28
2018-11-05T09:55:33.536Z,821.50
2018-11-05T09:58:02.941Z,827.77
2018-11-05T10:00:32.445Z,844.15
2018-11-05T10:03:03.531Z,842.92
2018-11-05T10:05:34.909Z,846.75
2018-11-05T10:08:04.368Z,847.95
2018-11-05T10:10:34.833Z,851.43
2018-11-05T10:13:04.391Z,835.87
2018-11-05T10:15:33.884Z,823.75
2018-11-05T10:18:03.946Z,835.75
2018-11-05T10:20:33.469Z,851.10
2018-11-05T10:23:02.968Z,859.37
2018-11-05T10:25:32.503Z,855.12
2018-11-05T10:28:02.118Z,833.40
2018-11-05T10:30:31.914Z,832.05
2018-11-05T10:33:01.450Z,835.55
2018-11-05T10:35:36.222Z,827.58
2018-11-05T10:38:05.805Z,821.63
2018-11-05T10:40:36.414Z,812.15
2018-11-05T10:43:06.465Z,822.45
2018-11-05T10:45:36.025Z,846.25
2018-11-05T10:48:05.503Z,845.90
2018-11-05T10:50:35.142Z,866.30
2018-11-05T10:53:04.655Z,853.48
2018-11-05T10:55:34.154Z,841.08
2018-11-05T10:58:04.843Z,829.30
2018-11-05T11:00:39.560Z,848.60
2018-11-05T11:03:15.015Z,843.50
2018-11-05T11:05:44.577Z,837.77
2018-11-05T11:08:14.032Z,841.17
2018-11-05T11:10:43.460Z,850.13
2018-11-05T11:13:12.906Z,837.05
2018-11-05T11:15:42.388Z,863.95
2018-11-05T11:18:11.829Z,862.20
2018-11-05T11:20:41.409Z,853.77
2018-11-05T11:23:11.028Z,852.73
2018-11-05T11:25:41.484Z,851.42
2018-11-05T11:28:11.075Z,837.83
2018-11-05T11:30:40.606Z,853.15
2018-11-05T11:33:10.154Z,838.87
2018-11-05T11:37:20.235Z,826.88
2018-11-05T11:39:49.611Z,835.30
2018-11-05T11:42:19.059Z,842.22
2018-11-05T11:44:48.586Z,846.90
2018-11-05T11:47:18.021Z,840.45
2018-11-05T11:49:47.548Z,832.70
2018-11-05T11:52:16.949Z,845.03
2018-11-05T11:54:46.479Z,846.33
2018-11-05T11:57:15.923Z,834.20
2018-11-05T11:59:45.481Z,840.42
2018-11-05T12:02:16.658Z,839.90
2018-11-05T12:04:46.077Z,839.95
2018-11-05T12:10:04.393Z,849.20
2018-11-05T12:12:33.972Z,866.80
2018-11-05T12:15:03.569Z,851.02
2018-11-05T12:17:32.966Z,849.23
2018-11-05T12:20:02.567Z,854.10
2018-11-05T12:22:32.029Z,861.20
2018-11-05T12:25:01.555Z,865.10
2018-11-05T12:27:31.023Z,868.77
2018-11-05T12:30:01.493Z,869.70
2018-11-05T12:32:30.948Z,855.30
2018-11-05T12:35:00.574Z,879.55
2018-11-05T12:37:30.077Z,858.87
2018-11-05T12:40:00.589Z,864.05
2018-11-05T12:42:30.003Z,855.10
2018-11-05T12:44:59.462Z,854.92
2018-11-05T12:47:28.996Z,895.50
2018-11-05T12:49:58.540Z,867.37
2018-11-05T12:52:28.022Z,892.68
2018-11-05T12:54:59.500Z,869.10
2018-11-05T12:57:28.891Z,880.12
2018-11-05T12:59:58.316Z,901.22
2018-11-05T13:02:27.891Z,878.60
2018-11-05T13:04:57.361Z,873.80
2018-11-05T13:07:26.762Z,904.05
2018-11-05T13:09:56.234Z,894.82
2018-11-05T13:12:25.848Z,878.85
2018-11-05T13:14:55.341Z,889.43
2018-11-05T13:17:24.882Z,885.80
2018-11-05T13:19:54.355Z,893.67
2018-11-05T13:22:23.929Z,891.02
2018-11-05T13:24:53.261Z,875.70
2018-11-05T13:27:23.683Z,891.35
2018-11-05T13:29:53.344Z,879.37
2018-11-05T13:32:22.852Z,908.50
2018-11-05T13:34:52.343Z,908.27
2018-11-05T13:37:22.045Z,927.75
2018-11-05T13:39:51.330Z,917.25
2018-11-05T13:42:20.720Z,894.00
2018-11-05T13:44:50.247Z,895.25
2018-11-05T13:47:20.282Z,892.68
2018-11-05T13:49:49.533Z,919.70
2018-11-05T13:52:20.085Z,881.58
2018-11-05T13:54:49.684Z,865.33
2018-11-05T13:57:18.929Z,873.17
2018-11-05T13:59:48.335Z,889.45
2018-11-05T14:02:19.602Z,874.02
2018-11-05T14:04:49.691Z,884.98
2018-11-05T14:07:19.099Z,881.05
2018-11-05T14:09:48.638Z,883.07
2018-11-05T14:12:18.120Z,880.23
2018-11-05T14:14:48.561Z,886.92
2018-11-05T14:17:19.032Z,900.85
2018-11-05T14:19:48.554Z,908.98
2018-11-05T14:22:19.005Z,908.30
2018-11-05T14:24:48.563Z,885.20
2018-11-05T14:27:18.067Z,900.87
2018-11-05T14:29:48.096Z,903.50
2018-11-05T14:32:17.081Z,901.60
2018-11-05T14:34:47.164Z,881.08
2018-11-05T14:37:16.639Z,878.50
2018-11-05T14:39:46.071Z,865.10
2018-11-05T14:42:16.685Z,866.47
2018-11-05T14:44:46.221Z,863.83
2018-11-05T14:47:16.242Z,870.05
2018-11-05T14:49:45.651Z,883.87
2018-11-05T14:52:15.107Z,870.57
2018-11-05T14:54:44.731Z,878.33
2018-11-05T14:57:15.224Z,867.98
2018-11-05T14:59:44.691Z,872.93
2018-11-05T15:02:19.495Z,879.92
2018-11-05T15:04:49.456Z,892.58
2018-11-05T15:07:19.042Z,894.35
2018-11-05T15:09:48.524Z,884.95
2018-11-05T15:12:18.043Z,888.08
2018-11-05T15:14:48.445Z,881.65
2018-11-05T15:17:18.545Z,879.70
2018-11-05T15:19:48.349Z,886.97
2018-11-05T15:22:18.452Z,881.05
2018-11-05T15:24:48.084Z,879.55
2018-11-05T15:27:17.568Z,894.95
2018-11-05T15:29:46.962Z,889.25
2018-11-05T15:32:16.464Z,894.60
2018-11-05T15:34:46.915Z,890.05
2018-11-05T15:37:16.300Z,889.13
2018-11-05T15:39:46.748Z,883.93
2018-11-05T15:42:16.214Z,894.80
2018-11-05T15:44:45.766Z,875.70
2018-11-05T15:47:15.204Z,882.90
2018-11-05T15:49:44.588Z,882.83
2018-11-05T15:52:14.339Z,894.65
2018-11-05T15:54:43.584Z,876.95
2018-11-05T15:57:13.013Z,877.35
2018-11-05T15:59:42.413Z,878.45
2018-11-05T16:02:13.268Z,876.80
2018-11-05T16:04:43.574Z,884.00
2018-11-05T16:07:13.005Z,886.80
2018-11-05T16:09:42.505Z,900.00
2018-11-05T16:12:11.901Z,888.65
2018-11-05T16:14:41.354Z,875.33
2018-11-05T16:17:11.143Z,878.88
2018-11-05T16:19:40.679Z,884.50
2018-11-05T16:22:11.145Z,874.35
2018-11-05T16:24:40.655Z,878.20
2018-11-05T16:27:10.096Z,912.97
2018-11-05T16:29:40.298Z,891.32
2018-11-05T16:32:09.812Z,901.75
2018-11-05T16:34:40.462Z,886.48
2018-11-05T16:37:11.943Z,891.13
2018-11-05T16:39:41.502Z,881.32
2018-11-05T16:42:10.986Z,895.40
2018-11-05T16:44:40.461Z,875.02
2018-11-05T16:47:09.994Z,879.33
2018-11-05T16:49:40.235Z,889.20
2018-11-05T16:52:10.751Z,878.40
2018-11-05T16:54:40.290Z,877.07
2018-11-05T16:57:09.846Z,868.58
2018-11-05T16:59:39.365Z,860.10
2018-11-05T17:02:13.358Z,840.50
2018-11-05T17:04:43.335Z,871.42
2018-11-05T17:07:12.787Z,850.50
2018-11-05T17:09:42.794Z,859.58
2018-11-05T17:12:12.210Z,869.73
2018-11-05T17:14:45.524Z,858.42
2018-11-05T17:17:15.038Z,853.55
2018-11-05T17:19:44.539Z,856.25
2018-11-05T17:22:14.721Z,850.55
2018-11-05T17:24:44.133Z,842.40
2018-11-05T17:27:13.718Z,852.37
2018-11-05T17:29:43.280Z,844.17
2018-11-05T17:32:12.764Z,845.88
2018-11-05T17:34:42.171Z,830.20
2018-11-05T17:37:11.669Z,843.00
2018-11-05T17:39:42.224Z,829.72
2018-11-05T17:42:11.609Z,816.83
2018-11-05T17:44:41.098Z,812.63
2018-11-05T17:47:11.540Z,814.30
2018-11-05T17:49:41.092Z,816.23
2018-11-05T17:52:10.585Z,793.30
2018-11-05T17:54:40.105Z,791.38
2018-11-05T17:57:09.491Z,799.85
2018-11-05T17:59:38.935Z,795.65
2018-11-05T18:02:10.319Z,780.33
2018-11-05T18:04:40.365Z,787.98
2018-11-05T18:07:10.860Z,787.45
2018-11-05T18:09:41.362Z,794.70
2018-11-05T18:12:10.935Z,792.22
2018-11-05T18:14:40.398Z,785.37
2018-11-05T18:17:09.963Z,789.95
2018-11-05T18:19:39.373Z,791.95
2018-11-05T18:22:08.825Z,785.37
2018-11-05T18:24:38.334Z,774.83
2018-11-05T18:27:11.593Z,805.50
2018-11-05T18:29:41.046Z,783.12
2018-11-05T18:32:14.797Z,777.70
2018-11-05T18:34:44.316Z,776.70
2018-11-05T18:37:14.337Z,769.17
2018-11-05T18:39:44.083Z,780.63
2018-11-05T18:42:13.561Z,781.25
2018-11-05T18:44:43.177Z,793.63
2018-11-05T18:47:12.750Z,779.25
2018-11-05T18:49:42.275Z,777.95
2018-11-05T18:52:11.757Z,780.20
2018-11-05T18:54:41.289Z,764.55
2018-11-05T18:57:10.717Z,804.25
2018-11-05T18:59:40.153Z,793.37
2018-11-05T19:02:15.895Z,779.60
2018-11-05T19:04:45.485Z,799.85
2018-11-05T19:07:14.945Z,806.32
2018-11-05T19:09:44.452Z,798.80
2018-11-05T19:12:13.890Z,792.10
2018-11-05T19:14:43.354Z,789.97
2018-11-05T19:17:12.951Z,788.48
2018-11-05T19:19:42.398Z,788.72
2018-11-05T19:22:11.828Z,790.77
2018-11-05T19:24:41.240Z,778.38
2018-11-05T19:27:10.721Z,790.50
2018-11-05T19:29:40.309Z,780.83
2018-11-05T19:32:09.750Z,809.15
2018-11-05T19:34:39.199Z,792.70
2018-11-05T19:37:09.074Z,778.57
2018-11-05T19:39:38.532Z,786.47
2018-11-05T19:42:08.151Z,786.28
2018-11-05T19:44:38.311Z,782.77
2018-11-05T19:47:07.755Z,788.12
2018-11-05T19:49:37.477Z,775.27
2018-11-05T19:52:06.820Z,769.40
2018-11-05T19:54:36.428Z,785.70
2018-11-05T19:57:06.072Z,782.55
2018-11-05T19:59:35.491Z,788.55
2018-11-05T20:02:05.745Z,792.75
2018-11-05T20:04:36.026Z,791.12
2018-11-05T20:07:05.481Z,777.70
2018-11-05T20:09:35.068Z,775.02
2018-11-05T20:12:04.806Z,798.35
2018-11-05T20:14:34.225Z,785.93
2018-11-05T20:17:03.700Z,779.02
2018-11-05T20:19:33.140Z,797.63
2018-11-05T20:22:02.703Z,781.00
2018-11-05T20:24:32.153Z,792.08
2018-11-05T20:27:01.576Z,774.62
2018-11-05T20:29:32.112Z,774.77
2018-11-05T20:32:01.858Z,798.50
2018-11-05T20:34:35.058Z,790.38
2018-11-05T20:37:04.346Z,806.67
2018-11-05T20:39:33.773Z,813.98
2018-11-05T20:42:03.374Z,813.00
2018-11-05T20:44:32.826Z,805.78
2018-11-05T20:47:02.459Z,801.33
2018-11-05T20:49:32.682Z,799.17
2018-11-05T20:52:02.179Z,799.25
2018-11-05T20:54:32.653Z,802.60
2018-11-05T20:57:02.885Z,832.80
2018-11-05T20:59:32.427Z,805.45
2018-11-05T21:02:02.998Z,810.25
2018-11-05T21:04:32.419Z,796.27
2018-11-05T21:07:01.842Z,804.15
2018-11-05T21:09:31.347Z,780.63
2018-11-05T21:12:00.831Z,800.73
2018-11-05T21:14:30.351Z,794.15
2018-11-05T21:16:59.945Z,797.25
2018-11-05T21:19:30.412Z,802.37
2018-11-05T21:22:00.013Z,798.30
2018-11-05T21:24:29.314Z,796.60
2018-11-05T21:26:58.858Z,789.32
2018-11-05T21:29:28.364Z,799.40
2018-11-05T21:31:57.877Z,791.05
2018-11-05T21:34:27.333Z,796.67
2018-11-05T21:36:56.935Z,808.47
2018-11-05T21:39:26.382Z,817.62
2018-11-05T21:41:56.771Z,793.33
2018-11-05T21:44:26.271Z,810.25
2018-11-05T21:46:55.838Z,803.03
2018-11-05T21:49:25.256Z,812.72
2018-11-05T21:51:54.774Z,793.90
2018-11-05T21:54:24.221Z,797.87
2018-11-05T21:56:53.742Z,820.23
2018-11-05T21:59:23.228Z,799.23
2018-11-05T22:01:52.765Z,800.33
2018-11-05T22:04:22.291Z,785.25
2018-11-05T22:06:51.643Z,780.35
2018-11-05T22:09:22.095Z,787.08
2018-11-05T22:11:51.578Z,804.45
2018-11-05T22:14:21.121Z,790.97
2018-11-05T22:16:50.551Z,784.85
2018-11-05T22:19:20.004Z,788.72
2018-11-05T22:21:49.443Z,784.75
2018-11-05T22:24:19.004Z,772.85
2018-11-05T22:26:48.388Z,790.65
2018-11-05T22:29:18.860Z,784.40
2018-11-05T22:31:48.321Z,785.33
2018-11-05T22:34:17.910Z,784.13
2018-11-05T22:36:47.343Z,778.85
2018-11-05T22:39:17.595Z,771.58
2018-11-05T22:41:47.603Z,777.08
2018-11-05T22:44:17.113Z,793.92
2018-11-05T22:46:46.642Z,784.27
2018-11-05T22:49:16.202Z,799.88
2018-11-05T22:51:46.400Z,821.10
2018-11-05T22:54:16.015Z,839.72
2018-11-05T22:56:45.459Z,857.42
2018-11-05T22:59:14.960Z,881.17
2018-11-05T23:01:49.584Z,889.72
2018-11-05T23:04:19.108Z,905.52
2018-11-05T23:06:48.987Z,913.23
2018-11-05T23:09:18.483Z,935.22
2018-11-05T23:11:48.227Z,941.25
2018-11-05T23:14:17.755Z,948.80
2018-11-05T23:16:47.231Z,964.87
2018-11-05T23:19:16.654Z,966.80
2018-11-05T23:21:46.218Z,969.80
2018-11-05T23:24:16.733Z,939.60
2018-11-05T23:26:46.247Z,914.73
2018-11-05T23:29:16.799Z,891.85
2018-11-05T23:31:46.326Z,877.90
2018-11-05T23:34:15.874Z,894.55
2018-11-05T23:36:45.413Z,906.78
2018-11-05T23:39:14.960Z,916.87
2018-11-05T23:41:45.460Z,940.17
2018-11-05T23:44:14.954Z,958.90
2018-11-05T23:46:44.415Z,964.05
2018-11-05T23:49:13.986Z,981.17
2018-11-05T23:51:43.493Z,986.87
2018-11-05T23:54:13.884Z,991.90
2018-11-05T23:56:43.308Z,1007.30
2018-11-05T23:59:12.746Z,1015.65
